createdAt,value
2024-03-04T00:00:21.563Z,5.70
2024-03-04T00:02:49.126Z,5.70
2024-03-04T00:05:16.605Z,5.70
2024-03-04T00:07:44.176Z,5.60
2024-03-04T00:10:11.612Z,5.60
2024-03-04T00:12:38.997Z,5.60
2024-03-04T00:15:06.724Z,5.60
2024-03-04T00:17:35.014Z,5.60
2024-03-04T00:20:07.984Z,5.60
2024-03-04T00:22:35.694Z,5.60
2024-03-04T00:25:03.341Z,5.60
2024-03-04T00:27:30.708Z,5.60
2024-03-04T00:29:58.825Z,5.60
2024-03-04T00:32:26.810Z,5.50
2024-03-04T00:34:55.151Z,5.50
2024-03-04T00:37:22.592Z,5.50
2024-03-04T00:39:50.032Z,5.50
2024-03-04T00:42:18.770Z,5.50
2024-03-04T00:44:46.216Z,5.40
2024-03-04T00:47:13.651Z,5.40
2024-03-04T00:49:41.026Z,5.40
2024-03-04T00:52:08.555Z,5.40
2024-03-04T00:54:35.979Z,5.30
2024-03-04T00:57:05.594Z,5.30
2024-03-04T00:59:33.388Z,5.30
2024-03-04T01:02:00.896Z,5.30
2024-03-04T01:04:28.421Z,5.30
2024-03-04T01:06:55.888Z,5.30
2024-03-04T01:09:23.338Z,5.20
2024-03-04T01:11:50.724Z,5.20
2024-03-04T01:14:18.494Z,5.10
2024-03-04T01:16:49.554Z,5.10
2024-03-04T01:19:17.772Z,5.00
2024-03-04T01:21:45.250Z,5.00
2024-03-04T01:24:12.813Z,4.90
2024-03-04T01:26:40.220Z,4.90
2024-03-04T01:29:09.545Z,4.90
2024-03-04T01:31:37.911Z,4.90
2024-03-04T01:34:07.057Z,4.90
2024-03-04T01:36:34.550Z,4.90
2024-03-04T01:39:04.159Z,5.00
2024-03-04T01:41:32.124Z,4.90
2024-03-04T01:43:59.578Z,4.90
2024-03-04T01:46:26.997Z,4.90
2024-03-04T01:48:55.257Z,4.90
2024-03-04T01:51:23.428Z,4.90
2024-03-04T01:53:51.153Z,4.80
2024-03-04T01:56:18.963Z,4.90
2024-03-04T01:58:48.784Z,4.90
2024-03-04T02:01:16.463Z,4.90
2024-03-04T02:03:43.884Z,4.80
2024-03-04T02:06:11.685Z,4.80
2024-03-04T02:08:39.222Z,4.80
2024-03-04T02:11:07.102Z,4.80
2024-03-04T02:13:34.845Z,4.70
2024-03-04T02:16:02.889Z,4.70
2024-03-04T02:18:31.414Z,5.00
2024-03-04T02:21:01.573Z,5.20
2024-03-04T02:23:29.035Z,5.20
2024-03-04T02:26:00.164Z,5.20
2024-03-04T02:28:29.660Z,5.10
2024-03-04T02:30:59.183Z,5.00
2024-03-04T02:33:27.295Z,5.00
2024-03-04T02:35:57.788Z,4.90
2024-03-04T02:38:25.814Z,4.90
2024-03-04T02:40:54.477Z,4.90
2024-03-04T02:43:23.013Z,4.80
2024-03-04T02:45:50.490Z,4.80
2024-03-04T02:48:17.875Z,4.70
2024-03-04T02:50:45.388Z,4.70
2024-03-04T02:53:12.940Z,4.70
2024-03-04T02:55:40.682Z,4.60
2024-03-04T02:58:08.236Z,4.60
2024-03-04T03:00:35.883Z,4.60
2024-03-04T03:03:03.523Z,4.50
2024-03-04T03:05:30.921Z,4.50
2024-03-04T03:07:58.478Z,4.50
2024-03-04T03:10:26.049Z,4.50
2024-03-04T03:12:53.611Z,4.50
2024-03-04T03:15:21.533Z,4.50
2024-03-04T03:17:49.768Z,4.50
2024-03-04T03:20:20.182Z,4.50
2024-03-04T03:22:47.762Z,4.50
2024-03-04T03:25:15.485Z,4.50
2024-03-04T03:27:43.867Z,4.50
2024-03-04T03:30:11.828Z,4.40
2024-03-04T03:32:39.955Z,4.40
2024-03-04T03:35:07.795Z,4.40
2024-03-04T03:37:35.687Z,4.30
2024-03-04T03:40:04.249Z,4.30
2024-03-04T03:42:33.434Z,4.30
2024-03-04T03:45:01.188Z,4.20
2024-03-04T03:47:31.320Z,4.20
2024-03-04T03:49:59.044Z,4.20
2024-03-04T03:52:26.674Z,4.20
2024-03-04T03:54:54.099Z,4.20
2024-03-04T03:57:21.810Z,4.20
2024-03-04T03:59:49.210Z,4.20
2024-03-04T04:02:16.687Z,4.20
2024-03-04T04:04:44.220Z,4.20
2024-03-04T04:07:11.668Z,4.20
2024-03-04T04:09:39.104Z,4.20
2024-03-04T04:12:07.938Z,4.20
2024-03-04T04:14:35.815Z,4.20
2024-03-04T04:17:03.307Z,4.20
2024-03-04T04:19:30.804Z,4.10
2024-03-04T04:21:58.264Z,4.10
2024-03-04T04:24:25.955Z,4.10
2024-03-04T04:26:53.429Z,4.10
2024-03-04T04:29:20.913Z,4.10
2024-03-04T04:31:48.322Z,4.10
2024-03-04T04:34:15.749Z,4.10
2024-03-04T04:36:50.892Z,4.10
2024-03-04T04:39:18.643Z,4.10
2024-03-04T04:41:46.369Z,4.10
2024-03-04T04:44:13.801Z,4.10
2024-03-04T04:46:41.316Z,4.10
2024-03-04T04:49:09.366Z,4.10
2024-03-04T04:51:36.819Z,4.10
2024-03-04T04:54:04.287Z,4.10
2024-03-04T04:56:31.677Z,4.10
2024-03-04T04:58:59.108Z,4.00
2024-03-04T05:01:27.598Z,4.00
2024-03-04T05:04:13.973Z,3.90
2024-03-04T05:06:42.759Z,3.90
2024-03-04T05:09:10.350Z,3.90
2024-03-04T05:11:37.919Z,3.90
2024-03-04T05:14:09.218Z,3.90
2024-03-04T05:16:36.824Z,3.90
2024-03-04T05:19:04.940Z,4.00
2024-03-04T05:21:32.351Z,4.00
2024-03-04T05:23:59.764Z,4.00
2024-03-04T05:26:27.213Z,4.00
2024-03-04T05:28:54.578Z,3.90
2024-03-04T05:31:22.076Z,3.90
2024-03-04T05:33:49.477Z,3.90
2024-03-04T05:36:16.889Z,3.90
2024-03-04T05:38:44.258Z,3.90
2024-03-04T05:41:11.992Z,3.80
2024-03-04T05:43:39.589Z,3.80
2024-03-04T05:46:07.018Z,3.90
2024-03-04T05:48:34.443Z,3.80
2024-03-04T05:51:04.374Z,3.80
2024-03-04T05:53:31.876Z,3.80
2024-03-04T05:55:59.328Z,3.80
2024-03-04T05:58:27.583Z,3.90
2024-03-04T06:00:57.866Z,3.90
2024-03-04T06:03:25.400Z,3.90
2024-03-04T06:05:52.755Z,3.90
2024-03-04T06:08:20.416Z,3.90
2024-03-04T06:10:48.026Z,3.90
2024-03-04T06:13:15.555Z,4.00
2024-03-04T06:15:43.004Z,3.90
2024-03-04T06:18:10.411Z,3.90
2024-03-04T06:20:37.784Z,4.00
2024-03-04T06:23:05.189Z,4.00
2024-03-04T06:25:32.657Z,4.00
2024-03-04T06:28:01.963Z,4.00
2024-03-04T06:30:29.652Z,3.90
2024-03-04T06:32:56.877Z,3.80
2024-03-04T06:35:24.047Z,3.80
2024-03-04T06:37:52.082Z,3.80
2024-03-04T06:40:19.543Z,3.90
2024-03-04T06:42:47.034Z,3.90
2024-03-04T06:45:14.479Z,3.90
2024-03-04T06:47:44.561Z,3.90
2024-03-04T06:50:11.944Z,3.90
2024-03-04T06:52:39.452Z,3.80
2024-03-04T06:55:07.140Z,3.80
2024-03-04T06:57:34.814Z,3.80
2024-03-04T07:00:04.342Z,3.80
2024-03-04T07:02:34.953Z,3.80
2024-03-04T07:05:02.273Z,3.70
2024-03-04T07:07:29.716Z,3.70
2024-03-04T07:09:57.234Z,3.80
2024-03-04T07:12:24.671Z,3.80
2024-03-04T07:14:52.089Z,3.80
2024-03-04T07:17:19.420Z,3.80
2024-03-04T07:19:46.894Z,3.80
2024-03-04T07:22:15.241Z,3.80
2024-03-04T07:24:42.612Z,3.90
2024-03-04T07:27:10.047Z,3.90
2024-03-04T07:29:41.234Z,3.90
2024-03-04T07:32:11.020Z,3.90
2024-03-04T07:34:38.393Z,3.90
2024-03-04T07:37:06.044Z,3.90
2024-03-04T07:39:33.556Z,3.90
2024-03-04T07:42:00.902Z,3.90
2024-03-04T07:44:28.321Z,3.90
2024-03-04T07:46:55.716Z,4.00
2024-03-04T07:49:23.292Z,4.00
2024-03-04T07:51:50.695Z,4.10
2024-03-04T07:54:18.232Z,4.10
2024-03-04T07:56:45.626Z,4.10
2024-03-04T07:59:13.018Z,4.20
2024-03-04T08:01:47.411Z,4.20
2024-03-04T08:04:14.950Z,4.30
2024-03-04T08:06:42.897Z,4.30
2024-03-04T08:09:11.755Z,4.40
2024-03-04T08:11:39.307Z,4.50
2024-03-04T08:14:06.736Z,4.50
2024-03-04T08:16:34.321Z,4.60
2024-03-04T08:19:01.834Z,4.70
2024-03-04T08:21:29.304Z,4.70
2024-03-04T08:23:56.681Z,4.80
2024-03-04T08:26:24.587Z,4.90
2024-03-04T08:28:55.964Z,4.90
2024-03-04T08:31:23.444Z,5.00
2024-03-04T08:33:50.954Z,5.20
2024-03-04T08:36:18.304Z,5.20
2024-03-04T08:38:46.012Z,5.30
2024-03-04T08:41:13.376Z,5.30
2024-03-04T08:43:41.345Z,5.40
2024-03-04T08:46:11.744Z,5.50
2024-03-04T08:48:39.151Z,5.50
2024-03-04T08:51:06.506Z,5.60
2024-03-04T08:53:33.886Z,5.70
2024-03-04T08:56:01.695Z,5.80
2024-03-04T08:58:29.126Z,5.90
2024-03-04T09:00:56.562Z,6.00
2024-03-04T09:03:24.117Z,6.10
2024-03-04T09:05:51.742Z,6.20
2024-03-04T09:08:19.071Z,6.20
2024-03-04T09:10:46.427Z,6.30
2024-03-04T09:13:13.870Z,6.40
2024-03-04T09:15:41.279Z,6.60
2024-03-04T09:18:08.724Z,6.80
2024-03-04T09:20:36.135Z,7.00
2024-03-04T09:23:03.631Z,7.20
2024-03-04T09:25:31.052Z,7.50
2024-03-04T09:27:58.505Z,7.60
2024-03-04T09:30:26.587Z,7.80
2024-03-04T09:32:54.049Z,7.90
2024-03-04T09:35:21.456Z,8.00
2024-03-04T09:37:49.485Z,8.10
2024-03-04T09:40:17.092Z,8.20
2024-03-04T09:42:47.661Z,8.30
2024-03-04T09:45:15.380Z,8.50
2024-03-04T09:47:45.246Z,8.60
2024-03-04T09:50:13.999Z,8.70
2024-03-04T09:52:41.521Z,8.70
2024-03-04T09:55:09.374Z,8.80
2024-03-04T09:57:37.142Z,8.90
2024-03-04T10:00:04.830Z,9.00
2024-03-04T10:02:32.698Z,9.00
2024-03-04T10:05:00.494Z,9.10
2024-03-04T10:07:33.496Z,9.20
2024-03-04T10:10:01.039Z,9.40
2024-03-04T10:12:28.593Z,9.70
2024-03-04T10:15:04.924Z,9.70
2024-03-04T10:17:32.529Z,9.60
2024-03-04T10:20:04.108Z,9.50
2024-03-04T10:22:33.551Z,9.50
2024-03-04T10:25:08.001Z,9.50
2024-03-04T10:27:45.179Z,9.50
2024-03-04T10:30:13.879Z,9.50
2024-03-04T10:32:55.371Z,9.50
2024-03-04T10:35:23.371Z,9.60
2024-03-04T10:37:51.178Z,9.60
2024-03-04T10:40:19.526Z,9.70
2024-03-04T10:42:47.706Z,9.80
2024-03-04T10:45:18.319Z,9.90
2024-03-04T10:47:46.679Z,10.10
2024-03-04T10:50:18.272Z,10.20
2024-03-04T10:52:45.720Z,10.20
2024-03-04T10:55:13.300Z,10.20
2024-03-04T10:57:44.763Z,10.10
2024-03-04T11:00:19.262Z,10.10
2024-03-04T11:02:58.900Z,10.20
2024-03-04T11:05:27.678Z,10.30
2024-03-04T11:07:59.711Z,10.30
2024-03-04T11:10:45.034Z,10.30
2024-03-04T11:13:18.507Z,10.40
2024-03-04T11:15:53.579Z,10.40
2024-03-04T11:18:39.467Z,10.50
2024-03-04T11:21:07.056Z,10.60
2024-03-04T11:23:34.672Z,10.70
2024-03-04T11:26:02.440Z,10.90
2024-03-04T11:28:30.724Z,11.00
2024-03-04T11:30:58.138Z,11.10
2024-03-04T11:33:41.968Z,11.10
2024-03-04T11:36:10.458Z,11.10
2024-03-04T11:38:42.265Z,11.20
2024-03-04T11:41:09.983Z,11.20
2024-03-04T11:43:52.043Z,11.30
2024-03-04T11:46:20.064Z,11.40
2024-03-04T11:48:47.766Z,11.30
2024-03-04T11:51:35.249Z,11.30
2024-03-04T11:54:06.196Z,11.30
2024-03-04T11:56:33.804Z,11.30
2024-03-04T11:59:01.872Z,11.30
2024-03-04T12:01:31.666Z,11.20
2024-03-04T12:03:59.035Z,11.20
2024-03-04T12:06:26.877Z,11.10
2024-03-04T12:09:09.692Z,11.10
2024-03-04T12:11:42.007Z,11.20
2024-03-04T12:14:09.552Z,11.20
2024-03-04T12:16:38.153Z,11.20
2024-03-04T12:19:07.109Z,11.20
2024-03-04T12:21:35.269Z,11.20
2024-03-04T12:24:02.657Z,11.20
2024-03-04T12:26:30.071Z,11.30
2024-03-04T12:28:58.048Z,11.40
2024-03-04T12:31:25.884Z,11.50
2024-03-04T12:33:57.069Z,11.50
2024-03-04T12:36:25.083Z,11.40
2024-03-04T12:38:52.967Z,11.50
2024-03-04T12:41:20.889Z,11.50
2024-03-04T12:43:51.549Z,12.00
2024-03-04T12:46:19.465Z,12.30
2024-03-04T12:48:46.992Z,12.10
2024-03-04T12:51:15.941Z,12.00
2024-03-04T12:53:43.566Z,12.30
2024-03-04T12:56:10.988Z,12.50
2024-03-04T12:58:41.149Z,12.60
2024-03-04T13:01:13.592Z,12.20
2024-03-04T13:03:41.091Z,11.80
2024-03-04T13:06:08.499Z,11.50
2024-03-04T13:08:35.894Z,11.60
2024-03-04T13:11:03.506Z,11.60
2024-03-04T13:13:30.936Z,11.50
2024-03-04T13:15:58.513Z,11.60
2024-03-04T13:18:27.174Z,11.80
2024-03-04T13:20:54.522Z,11.70
2024-03-04T13:23:21.924Z,11.70
2024-03-04T13:25:49.854Z,11.60
2024-03-04T13:28:17.370Z,11.60
2024-03-04T13:30:44.739Z,11.60
2024-03-04T13:33:12.173Z,11.40
2024-03-04T13:35:39.624Z,11.30
2024-03-04T13:38:08.348Z,11.40
2024-03-04T13:40:35.698Z,11.40
2024-03-04T13:43:12.912Z,11.30
2024-03-04T13:45:46.642Z,11.20
2024-03-04T13:48:14.169Z,11.10
2024-03-04T13:50:41.858Z,11.20
2024-03-04T13:53:09.365Z,11.20
2024-03-04T13:55:36.865Z,11.20
2024-03-04T13:58:04.679Z,11.20
2024-03-04T14:00:33.217Z,11.10
2024-03-04T14:03:00.625Z,11.00
2024-03-04T14:05:28.483Z,10.90
2024-03-04T14:07:55.971Z,10.90
2024-03-04T14:10:24.263Z,10.80
2024-03-04T14:12:52.809Z,10.70
2024-03-04T14:15:21.602Z,10.70
2024-03-04T14:17:50.842Z,10.70
2024-03-04T14:20:18.257Z,10.70
2024-03-04T14:22:45.807Z,10.70
2024-03-04T14:25:13.293Z,10.70
2024-03-04T14:27:40.724Z,10.70
2024-03-04T14:30:08.325Z,10.70
2024-03-04T14:32:35.879Z,10.60
2024-03-04T14:35:05.673Z,10.60
2024-03-04T14:37:33.168Z,10.60
2024-03-04T14:40:00.552Z,10.50
2024-03-04T14:42:27.940Z,10.60
2024-03-04T14:44:55.442Z,10.60
2024-03-04T14:47:22.884Z,10.60
2024-03-04T14:49:50.355Z,10.60
2024-03-04T14:52:17.823Z,10.60
2024-03-04T14:54:45.290Z,10.60
2024-03-04T14:57:12.707Z,10.60
2024-03-04T14:59:41.061Z,10.50
2024-03-04T15:02:08.608Z,10.50
2024-03-04T15:04:36.154Z,10.50
2024-03-04T15:07:05.436Z,10.60
2024-03-04T15:09:35.232Z,10.50
2024-03-04T15:12:07.068Z,10.50
2024-03-04T15:14:35.416Z,10.50
2024-03-04T15:17:06.356Z,10.50
2024-03-04T15:19:34.833Z,10.50
2024-03-04T15:22:02.505Z,10.40
2024-03-04T15:24:29.962Z,10.40
2024-03-04T15:26:57.458Z,10.30
2024-03-04T15:29:25.892Z,10.30
2024-03-04T15:31:53.256Z,10.30
2024-03-04T15:34:20.747Z,10.20
2024-03-04T15:36:50.902Z,10.20
2024-03-04T15:39:21.446Z,10.20
2024-03-04T15:41:48.840Z,10.10
2024-03-04T15:44:16.965Z,10.20
2024-03-04T15:46:47.761Z,10.10
2024-03-04T15:49:15.941Z,10.10
2024-03-04T15:51:46.786Z,10.00
2024-03-04T15:54:14.233Z,10.10
2024-03-04T15:56:43.342Z,10.10
2024-03-04T15:59:11.770Z,10.10
2024-03-04T16:01:39.462Z,10.00
2024-03-04T16:04:07.600Z,10.00
2024-03-04T16:06:35.176Z,10.10
2024-03-04T16:09:03.289Z,10.10
2024-03-04T16:11:30.923Z,10.10
2024-03-04T16:13:58.383Z,10.10
2024-03-04T16:16:25.869Z,10.00
2024-03-04T16:18:53.362Z,10.00
2024-03-04T16:21:20.814Z,10.00
2024-03-04T16:23:48.430Z,10.00
2024-03-04T16:26:15.794Z,9.90
2024-03-04T16:28:43.211Z,10.00
2024-03-04T16:31:10.932Z,9.90
2024-03-04T16:33:38.776Z,9.90
2024-03-04T16:36:06.311Z,9.90
2024-03-04T16:38:33.946Z,9.90
2024-03-04T16:41:04.900Z,9.90
2024-03-04T16:43:34.947Z,9.90
2024-03-04T16:46:03.515Z,9.80
2024-03-04T16:48:30.867Z,9.80
2024-03-04T16:50:58.217Z,9.80
2024-03-04T16:53:28.656Z,9.80
2024-03-04T16:55:56.141Z,9.70
2024-03-04T16:58:23.965Z,9.70
2024-03-04T17:00:52.378Z,9.70
2024-03-04T17:03:21.067Z,9.70
2024-03-04T17:05:48.323Z,9.70
2024-03-04T17:08:16.954Z,9.70
2024-03-04T17:10:44.401Z,9.60
2024-03-04T17:13:11.956Z,9.60
2024-03-04T17:15:39.305Z,9.60
2024-03-04T17:18:08.595Z,9.70
2024-03-04T17:20:37.805Z,9.60
2024-03-04T17:23:05.410Z,9.60
2024-03-04T17:25:33.081Z,9.60
2024-03-04T17:28:01.302Z,9.60
2024-03-04T17:30:30.348Z,9.50
2024-03-04T17:32:58.765Z,9.50
2024-03-04T17:35:26.182Z,9.50
2024-03-04T17:37:53.574Z,9.50
2024-03-04T17:40:21.026Z,9.50
2024-03-04T17:42:48.163Z,9.50
2024-03-04T17:45:15.280Z,9.50
2024-03-04T17:47:42.686Z,9.40
2024-03-04T17:50:10.128Z,9.50
2024-03-04T17:52:37.790Z,9.50
2024-03-04T17:55:05.657Z,9.50
2024-03-04T17:57:32.977Z,9.50
2024-03-04T18:00:00.323Z,9.50
2024-03-04T18:02:27.771Z,9.50
2024-03-04T18:04:55.795Z,9.50
2024-03-04T18:07:23.292Z,9.50
2024-03-04T18:09:51.389Z,9.50
2024-03-04T18:12:20.649Z,9.50
2024-03-04T18:14:48.023Z,9.40
2024-03-04T18:17:15.558Z,9.40
2024-03-04T18:19:42.949Z,9.50
2024-03-04T18:22:10.431Z,9.50
2024-03-04T18:24:37.868Z,9.50
2024-03-04T18:27:05.654Z,9.50
2024-03-04T18:29:33.956Z,9.60
2024-03-04T18:32:01.336Z,9.50
2024-03-04T18:34:30.721Z,9.50
2024-03-04T18:36:59.686Z,9.40
2024-03-04T18:39:27.667Z,9.40
2024-03-04T18:41:55.875Z,9.40
2024-03-04T18:44:23.844Z,9.40
2024-03-04T18:46:51.233Z,9.40
2024-03-04T18:49:18.618Z,9.40
2024-03-04T18:51:45.820Z,9.40
2024-03-04T18:54:18.501Z,9.40
2024-03-04T18:56:47.340Z,9.30
2024-03-04T18:59:14.749Z,9.30
2024-03-04T19:01:42.180Z,9.30
2024-03-04T19:04:09.704Z,9.30
2024-03-04T19:06:37.069Z,9.40
2024-03-04T19:09:06.059Z,9.40
2024-03-04T19:11:33.792Z,9.30
2024-03-04T19:14:01.407Z,9.40
2024-03-04T19:16:29.639Z,9.40
2024-03-04T19:18:57.155Z,9.40
2024-03-04T19:21:27.021Z,9.40
2024-03-04T19:23:54.887Z,9.40
2024-03-04T19:26:22.151Z,9.40
2024-03-04T19:28:49.883Z,9.40
2024-03-04T19:31:21.337Z,9.30
2024-03-04T19:33:50.942Z,9.30
2024-03-04T19:36:18.506Z,9.40
2024-03-04T19:38:46.129Z,9.30
2024-03-04T19:41:20.618Z,9.20
2024-03-04T19:43:48.991Z,9.20
2024-03-04T19:46:20.363Z,9.20
2024-03-04T19:48:49.152Z,9.10
2024-03-04T19:51:18.056Z,9.10
2024-03-04T19:53:45.712Z,9.00
2024-03-04T19:56:13.543Z,9.00
2024-03-04T19:58:45.871Z,8.90
2024-03-04T20:01:14.182Z,8.80
2024-03-04T20:03:45.006Z,8.60
2024-03-04T20:06:12.818Z,8.50
2024-03-04T20:08:41.961Z,8.40
2024-03-04T20:11:13.337Z,8.40
2024-03-04T20:13:42.059Z,8.40
2024-03-04T20:16:09.875Z,8.30
2024-03-04T20:18:37.568Z,8.30
2024-03-04T20:21:10.444Z,8.30
2024-03-04T20:23:38.699Z,8.20
2024-03-04T20:26:09.733Z,8.20
2024-03-04T20:28:37.249Z,8.20
2024-03-04T20:31:05.691Z,8.20
2024-03-04T20:33:34.197Z,8.10
2024-03-04T20:36:02.295Z,8.00
2024-03-04T20:38:29.700Z,8.00
2024-03-04T20:40:57.385Z,8.00
2024-03-04T20:43:24.970Z,8.00
2024-03-04T20:45:52.557Z,8.00
2024-03-04T20:48:20.208Z,7.90
2024-03-04T20:50:47.870Z,7.90
2024-03-04T20:53:15.987Z,7.90
2024-03-04T20:55:44.478Z,7.90
2024-03-04T20:58:12.172Z,7.90
2024-03-04T21:00:39.641Z,7.90
2024-03-04T21:03:07.648Z,7.90
2024-03-04T21:05:37.050Z,8.00
2024-03-04T21:08:06.561Z,8.00
2024-03-04T21:10:34.284Z,8.00
2024-03-04T21:13:01.795Z,8.00
2024-03-04T21:15:29.284Z,8.00
2024-03-04T21:17:58.720Z,8.00
2024-03-04T21:20:27.319Z,8.00
2024-03-04T21:22:56.013Z,7.90
2024-03-04T21:25:23.833Z,8.00
2024-03-04T21:27:53.922Z,7.90
2024-03-04T21:30:22.498Z,7.90
2024-03-04T21:32:50.330Z,7.90
2024-03-04T21:35:17.773Z,8.00
2024-03-04T21:37:45.818Z,8.00
2024-03-04T21:40:14.786Z,7.90
2024-03-04T21:42:45.518Z,7.90
2024-03-04T21:45:13.572Z,7.90
2024-03-04T21:47:41.233Z,7.90
2024-03-04T21:50:10.622Z,7.90
2024-03-04T21:52:42.146Z,7.90
2024-03-04T21:55:09.797Z,7.90
2024-03-04T21:57:37.314Z,7.90
2024-03-04T22:00:15.208Z,8.00
2024-03-04T22:02:44.404Z,7.90
2024-03-04T22:05:12.282Z,7.90
2024-03-04T22:07:41.353Z,7.90
2024-03-04T22:10:09.466Z,7.80
2024-03-04T22:12:36.979Z,7.80
2024-03-04T22:15:05.669Z,7.80
2024-03-04T22:17:33.328Z,7.90
2024-03-04T22:20:00.867Z,7.90
2024-03-04T22:22:28.502Z,7.80
2024-03-04T22:24:55.952Z,7.90
2024-03-04T22:27:23.289Z,7.90
2024-03-04T22:29:51.664Z,7.80
2024-03-04T22:32:18.991Z,7.80
2024-03-04T22:34:46.363Z,7.80
2024-03-04T22:37:14.812Z,7.80
2024-03-04T22:39:42.254Z,7.80
2024-03-04T22:42:11.000Z,7.80
2024-03-04T22:44:38.564Z,7.80
2024-03-04T22:47:06.073Z,7.80
2024-03-04T22:49:33.449Z,7.80
2024-03-04T22:52:00.856Z,7.70
2024-03-04T22:54:28.216Z,7.70
2024-03-04T22:56:55.551Z,7.70
2024-03-04T22:59:23.340Z,7.70
2024-03-04T23:01:51.828Z,7.70
2024-03-04T23:04:19.490Z,7.70
2024-03-04T23:06:46.964Z,7.60
2024-03-04T23:09:14.515Z,7.70
2024-03-04T23:11:41.946Z,7.60
2024-03-04T23:14:11.694Z,7.60
2024-03-04T23:16:39.567Z,7.60
2024-03-04T23:19:07.056Z,7.60
2024-03-04T23:21:34.624Z,7.60
2024-03-04T23:24:02.836Z,7.50
2024-03-04T23:26:30.276Z,7.40
2024-03-04T23:28:59.279Z,7.40
2024-03-04T23:31:27.327Z,7.40
2024-03-04T23:33:54.748Z,7.40
2024-03-04T23:36:22.278Z,7.40
2024-03-04T23:38:49.663Z,7.40
2024-03-04T23:41:17.530Z,7.50
2024-03-04T23:43:44.963Z,7.50
2024-03-04T23:46:12.384Z,7.50
2024-03-04T23:48:39.899Z,7.50
2024-03-04T23:51:07.639Z,7.50
2024-03-04T23:53:35.031Z,7.50
2024-03-04T23:56:02.661Z,7.50
2024-03-04T23:58:30.242Z,7.50
